sensor_id;sensor_type;location;lat;lon;timestamp;P1;durP1;ratioP1;P2;durP2;ratioP2
15317;SDS011;7759;52.528;13.346;2023-02-24T00:01:45;27.63;;;9.33;;
15317;SDS011;7759;52.528;13.346;2023-02-24T00:04:15;28.90;;;9.10;;
15317;SDS011;7759;52.528;13.346;2023-02-24T00:06:41;22.47;;;8.23;;
15317;SDS011;7759;52.528;13.346;2023-02-24T00:09:09;25.77;;;8.60;;
15317;SDS011;7759;52.528;13.346;2023-02-24T00:11:36;22.07;;;8.93;;
15317;SDS011;7759;52.528;13.346;2023-02-24T00:14:03;28.73;;;9.63;;
15317;SDS011;7759;52.528;13.346;2023-02-24T00:16:29;24.63;;;8.87;;
15317;SDS011;7759;52.528;13.346;2023-02-24T00:18:56;28.50;;;9.23;;
15317;SDS011;7759;52.528;13.346;2023-02-24T00:21:22;31.37;;;10.53;;
15317;SDS011;7759;52.528;13.346;2023-02-24T00:23:47;10.70;;;5.27;;
15317;SDS011;7759;52.528;13.346;2023-02-24T00:26:14;25.03;;;7.23;;
15317;SDS011;7759;52.528;13.346;2023-02-24T00:28:40;23.37;;;6.93;;
15317;SDS011;7759;52.528;13.346;2023-02-24T00:31:07;22.83;;;8.43;;
15317;SDS011;7759;52.528;13.346;2023-02-24T00:33:40;22.47;;;7.40;;
15317;SDS011;7759;52.528;13.346;2023-02-24T00:36:10;17.40;;;6.67;;
15317;SDS011;7759;52.528;13.346;2023-02-24T00:38:37;22.17;;;7.20;;
15317;SDS011;7759;52.528;13.346;2023-02-24T00:41:10;19.07;;;6.97;;
15317;SDS011;7759;52.528;13.346;2023-02-24T00:43:38;17.57;;;5.13;;
15317;SDS011;7759;52.528;13.346;2023-02-24T00:46:04;21.67;;;7.37;;
15317;SDS011;7759;52.528;13.346;2023-02-24T00:48:36;12.53;;;4.93;;
15317;SDS011;7759;52.528;13.346;2023-02-24T00:51:04;11.13;;;4.83;;
15317;SDS011;7759;52.528;13.346;2023-02-24T00:53:31;12.67;;;4.00;;
15317;SDS011;7759;52.528;13.346;2023-02-24T00:55:58;12.90;;;4.00;;
15317;SDS011;7759;52.528;13.346;2023-02-24T00:58:24;10.83;;;4.47;;
15317;SDS011;7759;52.528;13.346;2023-02-24T01:00:54;13.83;;;3.90;;
15317;SDS011;7759;52.528;13.346;2023-02-24T01:03:20;10.50;;;3.37;;
15317;SDS011;7759;52.528;13.346;2023-02-24T01:05:45;10.27;;;3.50;;
15317;SDS011;7759;52.528;13.346;2023-02-24T01:08:11;10.03;;;3.90;;
15317;SDS011;7759;52.528;13.346;2023-02-24T01:10:47;12.37;;;3.47;;
15317;SDS011;7759;52.528;13.346;2023-02-24T01:13:38;6.90;;;3.20;;
15317;SDS011;7759;52.528;13.346;2023-02-24T01:16:04;9.00;;;2.97;;
15317;SDS011;7759;52.528;13.346;2023-02-24T01:18:30;9.63;;;3.03;;
15317;SDS011;7759;52.528;13.346;2023-02-24T01:20:57;7.80;;;2.53;;
15317;SDS011;7759;52.528;13.346;2023-02-24T01:23:23;9.03;;;2.70;;
15317;SDS011;7759;52.528;13.346;2023-02-24T01:25:50;7.00;;;2.50;;
15317;SDS011;7759;52.528;13.346;2023-02-24T01:28:17;3.97;;;2.30;;
15317;SDS011;7759;52.528;13.346;2023-02-24T01:30:43;8.67;;;2.37;;
15317;SDS011;7759;52.528;13.346;2023-02-24T01:33:09;6.27;;;2.30;;
15317;SDS011;7759;52.528;13.346;2023-02-24T01:35:42;5.40;;;2.07;;
15317;SDS011;7759;52.528;13.346;2023-02-24T01:38:08;14.07;;;2.07;;
15317;SDS011;7759;52.528;13.346;2023-02-24T01:40:35;8.40;;;2.37;;
15317;SDS011;7759;52.528;13.346;2023-02-24T01:43:01;8.63;;;2.57;;
15317;SDS011;7759;52.528;13.346;2023-02-24T01:45:32;8.20;;;2.33;;
15317;SDS011;7759;52.528;13.346;2023-02-24T01:48:01;12.77;;;2.20;;
15317;SDS011;7759;52.528;13.346;2023-02-24T01:50:29;11.93;;;2.47;;
15317;SDS011;7759;52.528;13.346;2023-02-24T01:52:57;4.27;;;1.77;;
15317;SDS011;7759;52.528;13.346;2023-02-24T01:55:28;6.93;;;2.07;;
15317;SDS011;7759;52.528;13.346;2023-02-24T01:57:56;5.97;;;1.50;;
15317;SDS011;7759;52.528;13.346;2023-02-24T02:00:23;9.33;;;2.27;;
15317;SDS011;7759;52.528;13.346;2023-02-24T02:03:06;5.17;;;1.70;;
15317;SDS011;7759;52.528;13.346;2023-02-24T02:05:34;4.83;;;1.60;;
15317;SDS011;7759;52.528;13.346;2023-02-24T02:08:00;7.87;;;1.97;;
15317;SDS011;7759;52.528;13.346;2023-02-24T02:10:26;3.37;;;1.43;;
15317;SDS011;7759;52.528;13.346;2023-02-24T02:12:52;9.27;;;1.50;;
15317;SDS011;7759;52.528;13.346;2023-02-24T02:15:19;6.40;;;1.57;;
15317;SDS011;7759;52.528;13.346;2023-02-24T02:20:31;9.23;;;1.60;;
15317;SDS011;7759;52.528;13.346;2023-02-24T02:23:20;7.07;;;1.30;;
15317;SDS011;7759;52.528;13.346;2023-02-24T02:28:49;7.00;;;1.53;;
15317;SDS011;7759;52.528;13.346;2023-02-24T02:36:21;8.93;;;1.90;;
15317;SDS011;7759;52.528;13.346;2023-02-24T02:38:57;4.83;;;1.10;;
15317;SDS011;7759;52.528;13.346;2023-02-24T02:44:01;4.10;;;1.20;;
15317;SDS011;7759;52.528;13.346;2023-02-24T02:46:31;7.00;;;1.47;;
15317;SDS011;7759;52.528;13.346;2023-02-24T02:49:04;5.13;;;1.20;;
15317;SDS011;7759;52.528;13.346;2023-02-24T02:51:39;3.77;;;1.40;;
15317;SDS011;7759;52.528;13.346;2023-02-24T02:54:11;3.80;;;1.07;;
15317;SDS011;7759;52.528;13.346;2023-02-24T02:56:41;8.97;;;1.77;;
15317;SDS011;7759;52.528;13.346;2023-02-24T02:59:09;4.80;;;1.10;;
15317;SDS011;7759;52.528;13.346;2023-02-24T03:01:38;2.77;;;0.97;;
15317;SDS011;7759;52.528;13.346;2023-02-24T03:04:08;6.13;;;1.13;;
15317;SDS011;7759;52.528;13.346;2023-02-24T03:06:43;3.73;;;1.33;;
15317;SDS011;7759;52.528;13.346;2023-02-24T03:09:11;4.93;;;1.70;;
15317;SDS011;7759;52.528;13.346;2023-02-24T03:11:42;10.60;;;1.53;;
15317;SDS011;7759;52.528;13.346;2023-02-24T03:14:12;3.00;;;0.80;;
15317;SDS011;7759;52.528;13.346;2023-02-24T03:16:40;5.17;;;1.37;;
15317;SDS011;7759;52.528;13.346;2023-02-24T03:19:08;7.10;;;1.30;;
15317;SDS011;7759;52.528;13.346;2023-02-24T03:21:36;1.87;;;0.63;;
15317;SDS011;7759;52.528;13.346;2023-02-24T03:24:04;7.97;;;1.30;;
15317;SDS011;7759;52.528;13.346;2023-02-24T03:26:32;5.37;;;1.03;;
15317;SDS011;7759;52.528;13.346;2023-02-24T03:29:10;3.53;;;1.50;;
15317;SDS011;7759;52.528;13.346;2023-02-24T03:31:51;4.27;;;1.00;;
15317;SDS011;7759;52.528;13.346;2023-02-24T03:34:26;3.73;;;1.23;;
15317;SDS011;7759;52.528;13.346;2023-02-24T03:36:55;4.53;;;1.13;;
15317;SDS011;7759;52.528;13.346;2023-02-24T03:39:21;3.60;;;0.93;;
15317;SDS011;7759;52.528;13.346;2023-02-24T03:44:20;6.73;;;1.23;;
15317;SDS011;7759;52.528;13.346;2023-02-24T03:46:46;6.53;;;1.27;;
15317;SDS011;7759;52.528;13.346;2023-02-24T03:49:13;2.90;;;1.10;;
15317;SDS011;7759;52.528;13.346;2023-02-24T03:51:40;5.63;;;1.33;;
15317;SDS011;7759;52.528;13.346;2023-02-24T03:54:17;7.17;;;1.43;;
15317;SDS011;7759;52.528;13.346;2023-02-24T03:56:55;2.93;;;1.10;;
15317;SDS011;7759;52.528;13.346;2023-02-24T04:02:17;3.00;;;1.30;;
15317;SDS011;7759;52.528;13.346;2023-02-24T04:04:45;3.47;;;1.30;;
15317;SDS011;7759;52.528;13.346;2023-02-24T04:07:13;5.60;;;1.33;;
15317;SDS011;7759;52.528;13.346;2023-02-24T04:09:43;4.30;;;1.20;;
15317;SDS011;7759;52.528;13.346;2023-02-24T04:15:04;6.07;;;1.77;;
15317;SDS011;7759;52.528;13.346;2023-02-24T04:20:05;8.80;;;1.67;;
15317;SDS011;7759;52.528;13.346;2023-02-24T04:22:40;9.30;;;1.70;;
15317;SDS011;7759;52.528;13.346;2023-02-24T04:25:07;2.10;;;1.10;;
15317;SDS011;7759;52.528;13.346;2023-02-24T04:27:37;2.90;;;1.10;;
15317;SDS011;7759;52.528;13.346;2023-02-24T04:30:04;4.63;;;1.43;;
15317;SDS011;7759;52.528;13.346;2023-02-24T04:32:31;5.40;;;1.53;;
15317;SDS011;7759;52.528;13.346;2023-02-24T04:35:04;6.17;;;1.53;;
15317;SDS011;7759;52.528;13.346;2023-02-24T04:37:31;3.87;;;1.27;;
15317;SDS011;7759;52.528;13.346;2023-02-24T04:40:03;5.77;;;1.40;;
15317;SDS011;7759;52.528;13.346;2023-02-24T04:42:35;5.87;;;1.80;;
15317;SDS011;7759;52.528;13.346;2023-02-24T04:45:10;7.30;;;1.57;;
15317;SDS011;7759;52.528;13.346;2023-02-24T04:47:36;5.30;;;1.17;;
15317;SDS011;7759;52.528;13.346;2023-02-24T04:50:03;4.53;;;1.30;;
15317;SDS011;7759;52.528;13.346;2023-02-24T04:52:30;3.93;;;1.17;;
15317;SDS011;7759;52.528;13.346;2023-02-24T04:54:57;13.10;;;2.17;;
15317;SDS011;7759;52.528;13.346;2023-02-24T04:57:23;4.97;;;1.73;;
15317;SDS011;7759;52.528;13.346;2023-02-24T04:59:49;6.47;;;1.33;;
15317;SDS011;7759;52.528;13.346;2023-02-24T05:02:17;4.27;;;1.40;;
15317;SDS011;7759;52.528;13.346;2023-02-24T05:04:44;5.30;;;1.40;;
15317;SDS011;7759;52.528;13.346;2023-02-24T05:07:13;6.13;;;2.30;;
15317;SDS011;7759;52.528;13.346;2023-02-24T05:09:40;7.57;;;1.60;;
15317;SDS011;7759;52.528;13.346;2023-02-24T05:12:06;5.97;;;1.40;;
15317;SDS011;7759;52.528;13.346;2023-02-24T05:14:33;4.63;;;1.50;;
15317;SDS011;7759;52.528;13.346;2023-02-24T05:16:59;2.97;;;1.10;;
15317;SDS011;7759;52.528;13.346;2023-02-24T05:19:26;5.17;;;1.00;;
15317;SDS011;7759;52.528;13.346;2023-02-24T05:22:21;4.80;;;1.77;;
15317;SDS011;7759;52.528;13.346;2023-02-24T05:24:47;5.60;;;1.33;;
15317;SDS011;7759;52.528;13.346;2023-02-24T05:27:14;2.07;;;0.97;;
15317;SDS011;7759;52.528;13.346;2023-02-24T05:29:41;6.10;;;1.20;;
15317;SDS011;7759;52.528;13.346;2023-02-24T05:32:08;5.33;;;1.27;;
15317;SDS011;7759;52.528;13.346;2023-02-24T05:34:34;4.70;;;1.17;;
15317;SDS011;7759;52.528;13.346;2023-02-24T05:37:02;4.97;;;1.10;;
15317;SDS011;7759;52.528;13.346;2023-02-24T05:39:34;8.27;;;1.37;;
15317;SDS011;7759;52.528;13.346;2023-02-24T05:41:59;2.77;;;1.07;;
15317;SDS011;7759;52.528;13.346;2023-02-24T05:44:30;7.33;;;1.67;;
15317;SDS011;7759;52.528;13.346;2023-02-24T05:46:56;3.70;;;1.00;;
15317;SDS011;7759;52.528;13.346;2023-02-24T05:49:24;7.07;;;1.17;;
15317;SDS011;7759;52.528;13.346;2023-02-24T05:51:52;2.07;;;1.00;;
15317;SDS011;7759;52.528;13.346;2023-02-24T05:54:19;5.63;;;1.10;;
15317;SDS011;7759;52.528;13.346;2023-02-24T05:56:46;3.17;;;1.20;;
15317;SDS011;7759;52.528;13.346;2023-02-24T05:59:12;1.17;;;0.73;;
15317;SDS011;7759;52.528;13.346;2023-02-24T06:01:42;3.20;;;0.80;;
15317;SDS011;7759;52.528;13.346;2023-02-24T06:04:11;3.47;;;0.87;;
15317;SDS011;7759;52.528;13.346;2023-02-24T06:06:45;5.93;;;1.20;;
15317;SDS011;7759;52.528;13.346;2023-02-24T06:09:14;9.63;;;1.03;;
15317;SDS011;7759;52.528;13.346;2023-02-24T06:11:40;3.67;;;1.17;;
15317;SDS011;7759;52.528;13.346;2023-02-24T06:14:07;4.23;;;0.93;;
15317;SDS011;7759;52.528;13.346;2023-02-24T06:16:34;3.47;;;1.03;;
15317;SDS011;7759;52.528;13.346;2023-02-24T06:19:01;8.43;;;1.20;;
15317;SDS011;7759;52.528;13.346;2023-02-24T06:21:27;3.53;;;1.13;;
15317;SDS011;7759;52.528;13.346;2023-02-24T06:23:56;4.90;;;0.90;;
15317;SDS011;7759;52.528;13.346;2023-02-24T06:26:23;1.77;;;0.47;;
15317;SDS011;7759;52.528;13.346;2023-02-24T06:28:53;2.97;;;1.17;;
15317;SDS011;7759;52.528;13.346;2023-02-24T06:31:19;4.50;;;1.33;;
15317;SDS011;7759;52.528;13.346;2023-02-24T06:33:45;2.77;;;1.00;;
15317;SDS011;7759;52.528;13.346;2023-02-24T06:36:11;6.57;;;0.97;;
15317;SDS011;7759;52.528;13.346;2023-02-24T06:38:38;5.97;;;1.20;;
15317;SDS011;7759;52.528;13.346;2023-02-24T06:41:04;7.67;;;1.40;;
15317;SDS011;7759;52.528;13.346;2023-02-24T06:43:35;2.83;;;0.83;;
15317;SDS011;7759;52.528;13.346;2023-02-24T06:46:02;5.20;;;1.00;;
15317;SDS011;7759;52.528;13.346;2023-02-24T06:48:29;7.43;;;1.33;;
15317;SDS011;7759;52.528;13.346;2023-02-24T06:50:57;2.97;;;1.43;;
15317;SDS011;7759;52.528;13.346;2023-02-24T06:53:24;4.33;;;1.17;;
15317;SDS011;7759;52.528;13.346;2023-02-24T06:55:50;2.43;;;0.80;;
15317;SDS011;7759;52.528;13.346;2023-02-24T06:58:17;7.47;;;1.13;;
15317;SDS011;7759;52.528;13.346;2023-02-24T07:00:43;5.53;;;1.33;;
15317;SDS011;7759;52.528;13.346;2023-02-24T07:03:20;4.47;;;1.33;;
15317;SDS011;7759;52.528;13.346;2023-02-24T07:05:49;4.50;;;1.17;;
15317;SDS011;7759;52.528;13.346;2023-02-24T07:08:21;5.50;;;1.20;;
15317;SDS011;7759;52.528;13.346;2023-02-24T07:10:54;2.60;;;0.87;;
15317;SDS011;7759;52.528;13.346;2023-02-24T07:13:21;3.47;;;0.87;;
15317;SDS011;7759;52.528;13.346;2023-02-24T07:15:48;5.43;;;1.40;;
15317;SDS011;7759;52.528;13.346;2023-02-24T07:18:17;3.23;;;0.93;;
15317;SDS011;7759;52.528;13.346;2023-02-24T07:20:43;4.77;;;1.00;;
15317;SDS011;7759;52.528;13.346;2023-02-24T07:23:13;1.73;;;1.00;;
15317;SDS011;7759;52.528;13.346;2023-02-24T07:25:40;5.00;;;0.97;;
15317;SDS011;7759;52.528;13.346;2023-02-24T07:28:07;4.80;;;0.80;;
15317;SDS011;7759;52.528;13.346;2023-02-24T07:30:33;5.07;;;1.33;;
15317;SDS011;7759;52.528;13.346;2023-02-24T07:33:00;4.83;;;1.23;;
15317;SDS011;7759;52.528;13.346;2023-02-24T07:35:27;7.53;;;1.70;;
15317;SDS011;7759;52.528;13.346;2023-02-24T07:37:53;3.77;;;1.30;;
15317;SDS011;7759;52.528;13.346;2023-02-24T07:40:25;3.27;;;0.90;;
15317;SDS011;7759;52.528;13.346;2023-02-24T07:42:52;2.40;;;0.80;;
15317;SDS011;7759;52.528;13.346;2023-02-24T07:45:18;4.60;;;1.40;;
15317;SDS011;7759;52.528;13.346;2023-02-24T07:47:43;6.00;;;1.47;;
15317;SDS011;7759;52.528;13.346;2023-02-24T07:50:10;2.10;;;1.30;;
15317;SDS011;7759;52.528;13.346;2023-02-24T07:52:39;2.33;;;1.17;;
15317;SDS011;7759;52.528;13.346;2023-02-24T07:55:05;2.67;;;1.07;;
15317;SDS011;7759;52.528;13.346;2023-02-24T07:57:32;4.50;;;1.47;;
15317;SDS011;7759;52.528;13.346;2023-02-24T08:00:01;7.47;;;1.00;;
15317;SDS011;7759;52.528;13.346;2023-02-24T08:02:40;4.60;;;1.00;;
15317;SDS011;7759;52.528;13.346;2023-02-24T08:05:07;4.27;;;1.20;;
15317;SDS011;7759;52.528;13.346;2023-02-24T08:07:33;3.60;;;1.10;;
15317;SDS011;7759;52.528;13.346;2023-02-24T08:09:59;4.43;;;0.93;;
15317;SDS011;7759;52.528;13.346;2023-02-24T08:12:38;6.63;;;1.47;;
15317;SDS011;7759;52.528;13.346;2023-02-24T08:15:06;4.13;;;1.03;;
15317;SDS011;7759;52.528;13.346;2023-02-24T08:17:41;5.17;;;1.33;;
15317;SDS011;7759;52.528;13.346;2023-02-24T08:20:07;1.97;;;0.83;;
15317;SDS011;7759;52.528;13.346;2023-02-24T08:22:39;7.07;;;1.37;;
15317;SDS011;7759;52.528;13.346;2023-02-24T08:25:08;5.20;;;1.20;;
15317;SDS011;7759;52.528;13.346;2023-02-24T08:27:35;7.50;;;1.40;;
15317;SDS011;7759;52.528;13.346;2023-02-24T08:30:05;3.03;;;1.00;;
15317;SDS011;7759;52.528;13.346;2023-02-24T08:35:01;3.60;;;1.47;;
15317;SDS011;7759;52.528;13.346;2023-02-24T08:37:33;1.77;;;0.90;;
15317;SDS011;7759;52.528;13.346;2023-02-24T08:40:04;2.30;;;1.00;;
15317;SDS011;7759;52.528;13.346;2023-02-24T08:42:30;6.63;;;1.40;;
15317;SDS011;7759;52.528;13.346;2023-02-24T08:44:59;3.07;;;1.17;;
15317;SDS011;7759;52.528;13.346;2023-02-24T08:47:26;3.83;;;1.27;;
15317;SDS011;7759;52.528;13.346;2023-02-24T08:49:55;2.57;;;0.87;;
15317;SDS011;7759;52.528;13.346;2023-02-24T08:52:23;4.73;;;1.30;;
15317;SDS011;7759;52.528;13.346;2023-02-24T08:54:51;3.63;;;1.10;;
15317;SDS011;7759;52.528;13.346;2023-02-24T08:57:22;5.07;;;1.20;;
15317;SDS011;7759;52.528;13.346;2023-02-24T08:59:49;1.93;;;1.00;;
15317;SDS011;7759;52.528;13.346;2023-02-24T09:02:21;5.07;;;1.00;;
15317;SDS011;7759;52.528;13.346;2023-02-24T09:04:57;5.37;;;1.30;;
15317;SDS011;7759;52.528;13.346;2023-02-24T09:07:26;5.63;;;1.30;;
15317;SDS011;7759;52.528;13.346;2023-02-24T09:09:52;2.80;;;1.23;;
15317;SDS011;7759;52.528;13.346;2023-02-24T09:12:20;3.40;;;1.23;;
15317;SDS011;7759;52.528;13.346;2023-02-24T09:14:49;1.93;;;0.87;;
15317;SDS011;7759;52.528;13.346;2023-02-24T09:17:15;1.93;;;0.90;;
15317;SDS011;7759;52.528;13.346;2023-02-24T09:19:48;5.27;;;1.23;;
15317;SDS011;7759;52.528;13.346;2023-02-24T09:22:15;3.90;;;1.57;;
15317;SDS011;7759;52.528;13.346;2023-02-24T09:24:55;2.43;;;1.30;;
15317;SDS011;7759;52.528;13.346;2023-02-24T09:27:41;8.27;;;2.17;;
15317;SDS011;7759;52.528;13.346;2023-02-24T09:30:10;3.47;;;1.27;;
15317;SDS011;7759;52.528;13.346;2023-02-24T09:32:56;4.17;;;1.53;;
15317;SDS011;7759;52.528;13.346;2023-02-24T09:35:27;4.63;;;1.37;;
15317;SDS011;7759;52.528;13.346;2023-02-24T09:37:56;2.67;;;1.10;;
15317;SDS011;7759;52.528;13.346;2023-02-24T09:40:24;2.37;;;1.00;;
15317;SDS011;7759;52.528;13.346;2023-02-24T09:43:12;2.97;;;0.90;;
15317;SDS011;7759;52.528;13.346;2023-02-24T09:45:45;7.90;;;1.17;;
15317;SDS011;7759;52.528;13.346;2023-02-24T09:48:18;4.63;;;1.20;;
15317;SDS011;7759;52.528;13.346;2023-02-24T09:50:46;5.47;;;1.57;;
15317;SDS011;7759;52.528;13.346;2023-02-24T09:53:38;3.47;;;1.30;;
15317;SDS011;7759;52.528;13.346;2023-02-24T09:56:19;4.50;;;1.30;;
15317;SDS011;7759;52.528;13.346;2023-02-24T09:59:09;3.10;;;0.90;;
15317;SDS011;7759;52.528;13.346;2023-02-24T10:01:45;1.80;;;1.17;;
15317;SDS011;7759;52.528;13.346;2023-02-24T10:04:14;3.10;;;1.17;;
15317;SDS011;7759;52.528;13.346;2023-02-24T10:06:47;4.30;;;1.10;;
15317;SDS011;7759;52.528;13.346;2023-02-24T10:09:34;2.23;;;1.23;;
15317;SDS011;7759;52.528;13.346;2023-02-24T10:12:06;1.17;;;0.93;;
15317;SDS011;7759;52.528;13.346;2023-02-24T10:14:42;7.93;;;1.60;;
15317;SDS011;7759;52.528;13.346;2023-02-24T10:17:15;5.87;;;1.30;;
15317;SDS011;7759;52.528;13.346;2023-02-24T10:19:48;7.33;;;1.20;;
15317;SDS011;7759;52.528;13.346;2023-02-24T10:22:29;1.63;;;0.80;;
15317;SDS011;7759;52.528;13.346;2023-02-24T10:27:51;6.17;;;1.07;;
15317;SDS011;7759;52.528;13.346;2023-02-24T10:33:20;2.93;;;1.00;;
15317;SDS011;7759;52.528;13.346;2023-02-24T10:35:49;3.93;;;1.03;;
15317;SDS011;7759;52.528;13.346;2023-02-24T10:38:15;2.53;;;0.90;;
15317;SDS011;7759;52.528;13.346;2023-02-24T10:40:45;1.67;;;0.70;;
15317;SDS011;7759;52.528;13.346;2023-02-24T10:43:20;5.00;;;1.13;;
15317;SDS011;7759;52.528;13.346;2023-02-24T10:45:54;1.53;;;0.77;;
15317;SDS011;7759;52.528;13.346;2023-02-24T10:48:29;3.90;;;1.53;;
15317;SDS011;7759;52.528;13.346;2023-02-24T10:51:06;3.83;;;1.10;;
15317;SDS011;7759;52.528;13.346;2023-02-24T10:53:33;2.30;;;0.70;;
15317;SDS011;7759;52.528;13.346;2023-02-24T10:56:07;2.87;;;1.10;;
15317;SDS011;7759;52.528;13.346;2023-02-24T10:59:09;1.87;;;0.90;;
15317;SDS011;7759;52.528;13.346;2023-02-24T11:02:06;5.60;;;1.30;;
15317;SDS011;7759;52.528;13.346;2023-02-24T11:04:48;3.57;;;1.10;;
15317;SDS011;7759;52.528;13.346;2023-02-24T11:07:22;4.00;;;1.20;;
15317;SDS011;7759;52.528;13.346;2023-02-24T11:09:59;4.73;;;0.90;;
15317;SDS011;7759;52.528;13.346;2023-02-24T11:12:35;6.23;;;1.27;;
15317;SDS011;7759;52.528;13.346;2023-02-24T11:15:24;5.10;;;1.67;;
15317;SDS011;7759;52.528;13.346;2023-02-24T11:18:17;2.10;;;1.07;;
15317;SDS011;7759;52.528;13.346;2023-02-24T11:20:45;0.60;;;0.50;;
15317;SDS011;7759;52.528;13.346;2023-02-24T11:23:14;3.40;;;0.77;;
15317;SDS011;7759;52.528;13.346;2023-02-24T11:26:02;2.50;;;0.87;;
15317;SDS011;7759;52.528;13.346;2023-02-24T11:28:32;2.33;;;1.00;;
15317;SDS011;7759;52.528;13.346;2023-02-24T11:31:18;4.87;;;1.00;;
15317;SDS011;7759;52.528;13.346;2023-02-24T11:34:06;3.37;;;1.30;;
15317;SDS011;7759;52.528;13.346;2023-02-24T11:41:46;3.83;;;1.77;;
15317;SDS011;7759;52.528;13.346;2023-02-24T11:44:19;4.27;;;1.77;;
15317;SDS011;7759;52.528;13.346;2023-02-24T11:46:51;3.47;;;1.20;;
15317;SDS011;7759;52.528;13.346;2023-02-24T11:49:26;3.93;;;1.10;;
15317;SDS011;7759;52.528;13.346;2023-02-24T11:51:53;4.07;;;1.43;;
15317;SDS011;7759;52.528;13.346;2023-02-24T11:54:20;3.47;;;1.20;;
15317;SDS011;7759;52.528;13.346;2023-02-24T11:56:54;2.53;;;1.00;;
15317;SDS011;7759;52.528;13.346;2023-02-24T12:04:39;1.93;;;1.00;;
15317;SDS011;7759;52.528;13.346;2023-02-24T12:07:13;2.03;;;0.80;;
15317;SDS011;7759;52.528;13.346;2023-02-24T12:09:46;4.60;;;1.00;;
15317;SDS011;7759;52.528;13.346;2023-02-24T12:12:16;3.30;;;1.17;;
15317;SDS011;7759;52.528;13.346;2023-02-24T12:14:48;1.33;;;1.00;;
15317;SDS011;7759;52.528;13.346;2023-02-24T12:17:16;3.47;;;1.00;;
15317;SDS011;7759;52.528;13.346;2023-02-24T12:19:48;5.27;;;1.10;;
15317;SDS011;7759;52.528;13.346;2023-02-24T12:22:15;5.90;;;0.90;;
15317;SDS011;7759;52.528;13.346;2023-02-24T12:24:46;5.53;;;1.20;;
15317;SDS011;7759;52.528;13.346;2023-02-24T12:34:49;5.20;;;0.70;;
15317;SDS011;7759;52.528;13.346;2023-02-24T12:39:48;1.03;;;0.50;;
15317;SDS011;7759;52.528;13.346;2023-02-24T12:42:22;1.83;;;0.70;;
15317;SDS011;7759;52.528;13.346;2023-02-24T12:44:53;2.57;;;1.00;;
15317;SDS011;7759;52.528;13.346;2023-02-24T12:47:29;2.27;;;0.80;;
15317;SDS011;7759;52.528;13.346;2023-02-24T12:50:09;2.00;;;1.10;;
15317;SDS011;7759;52.528;13.346;2023-02-24T12:52:42;2.93;;;0.83;;
15317;SDS011;7759;52.528;13.346;2023-02-24T12:55:12;1.67;;;0.93;;
15317;SDS011;7759;52.528;13.346;2023-02-24T12:57:44;1.47;;;0.70;;
15317;SDS011;7759;52.528;13.346;2023-02-24T13:00:14;4.03;;;1.00;;
15317;SDS011;7759;52.528;13.346;2023-02-24T13:02:53;3.63;;;0.57;;
15317;SDS011;7759;52.528;13.346;2023-02-24T13:06:24;1.47;;;0.50;;
15317;SDS011;7759;52.528;13.346;2023-02-24T13:08:23;2.83;;;0.80;;
15317;SDS011;7759;52.528;13.346;2023-02-24T13:11:02;3.43;;;0.80;;
15317;SDS011;7759;52.528;13.346;2023-02-24T13:16:30;1.67;;;0.87;;
15317;SDS011;7759;52.528;13.346;2023-02-24T13:19:39;2.77;;;1.00;;
15317;SDS011;7759;52.528;13.346;2023-02-24T13:21:57;3.70;;;0.90;;
15317;SDS011;7759;52.528;13.346;2023-02-24T13:24:26;2.00;;;0.70;;
15317;SDS011;7759;52.528;13.346;2023-02-24T13:27:02;1.17;;;0.70;;
15317;SDS011;7759;52.528;13.346;2023-02-24T13:29:28;2.30;;;0.90;;
15317;SDS011;7759;52.528;13.346;2023-02-24T13:31:54;2.10;;;0.83;;
15317;SDS011;7759;52.528;13.346;2023-02-24T13:34:28;2.80;;;1.20;;
15317;SDS011;7759;52.528;13.346;2023-02-24T13:36:55;5.07;;;1.07;;
15317;SDS011;7759;52.528;13.346;2023-02-24T13:39:31;2.20;;;0.90;;
15317;SDS011;7759;52.528;13.346;2023-02-24T13:42:01;5.23;;;2.90;;
15317;SDS011;7759;52.528;13.346;2023-02-24T13:44:27;2.53;;;0.97;;
15317;SDS011;7759;52.528;13.346;2023-02-24T13:47:05;2.60;;;1.07;;
15317;SDS011;7759;52.528;13.346;2023-02-24T13:49:38;1.53;;;0.60;;
15317;SDS011;7759;52.528;13.346;2023-02-24T13:54:58;4.00;;;1.00;;
15317;SDS011;7759;52.528;13.346;2023-02-24T14:00:40;2.17;;;1.10;;
15317;SDS011;7759;52.528;13.346;2023-02-24T14:03:10;1.80;;;1.10;;
15317;SDS011;7759;52.528;13.346;2023-02-24T14:05:38;1.30;;;1.20;;
15317;SDS011;7759;52.528;13.346;2023-02-24T14:08:06;2.37;;;1.03;;
15317;SDS011;7759;52.528;13.346;2023-02-24T14:10:32;2.80;;;0.80;;
15317;SDS011;7759;52.528;13.346;2023-02-24T14:13:04;1.70;;;0.70;;
15317;SDS011;7759;52.528;13.346;2023-02-24T14:15:31;5.17;;;1.07;;
15317;SDS011;7759;52.528;13.346;2023-02-24T14:17:59;3.00;;;1.20;;
15317;SDS011;7759;52.528;13.346;2023-02-24T14:20:26;1.23;;;0.83;;
15317;SDS011;7759;52.528;13.346;2023-02-24T14:22:56;1.43;;;0.90;;
15317;SDS011;7759;52.528;13.346;2023-02-24T14:25:26;1.83;;;1.30;;
15317;SDS011;7759;52.528;13.346;2023-02-24T14:27:54;3.57;;;1.00;;
15317;SDS011;7759;52.528;13.346;2023-02-24T14:30:21;2.20;;;1.00;;
15317;SDS011;7759;52.528;13.346;2023-02-24T14:32:48;2.03;;;1.30;;
15317;SDS011;7759;52.528;13.346;2023-02-24T14:37:55;1.57;;;1.27;;
15317;SDS011;7759;52.528;13.346;2023-02-24T14:40:23;2.43;;;1.10;;
15317;SDS011;7759;52.528;13.346;2023-02-24T14:42:49;1.10;;;1.00;;
15317;SDS011;7759;52.528;13.346;2023-02-24T14:45:16;0.97;;;0.87;;
15317;SDS011;7759;52.528;13.346;2023-02-24T14:47:42;1.67;;;1.10;;
15317;SDS011;7759;52.528;13.346;2023-02-24T14:50:15;2.87;;;0.87;;
15317;SDS011;7759;52.528;13.346;2023-02-24T14:52:55;1.33;;;0.90;;
15317;SDS011;7759;52.528;13.346;2023-02-24T14:55:23;1.77;;;0.87;;
15317;SDS011;7759;52.528;13.346;2023-02-24T15:00:17;2.70;;;1.03;;
15317;SDS011;7759;52.528;13.346;2023-02-24T15:02:50;1.47;;;1.03;;
15317;SDS011;7759;52.528;13.346;2023-02-24T15:05:17;1.90;;;1.40;;
15317;SDS011;7759;52.528;13.346;2023-02-24T15:07:44;2.73;;;1.23;;
15317;SDS011;7759;52.528;13.346;2023-02-24T15:10:17;1.50;;;1.17;;
15317;SDS011;7759;52.528;13.346;2023-02-24T15:12:45;4.03;;;0.90;;
15317;SDS011;7759;52.528;13.346;2023-02-24T15:15:25;1.73;;;1.20;;
15317;SDS011;7759;52.528;13.346;2023-02-24T15:17:54;3.10;;;1.03;;
15317;SDS011;7759;52.528;13.346;2023-02-24T15:20:25;1.10;;;1.00;;
15317;SDS011;7759;52.528;13.346;2023-02-24T15:22:51;1.33;;;0.80;;
15317;SDS011;7759;52.528;13.346;2023-02-24T15:25:18;1.20;;;0.70;;
15317;SDS011;7759;52.528;13.346;2023-02-24T15:27:55;1.90;;;0.90;;
15317;SDS011;7759;52.528;13.346;2023-02-24T15:30:26;1.17;;;0.87;;
15317;SDS011;7759;52.528;13.346;2023-02-24T15:33:00;2.87;;;1.10;;
15317;SDS011;7759;52.528;13.346;2023-02-24T15:35:27;0.60;;;0.60;;
15317;SDS011;7759;52.528;13.346;2023-02-24T15:37:53;1.83;;;0.80;;
15317;SDS011;7759;52.528;13.346;2023-02-24T15:40:20;1.57;;;0.80;;
15317;SDS011;7759;52.528;13.346;2023-02-24T15:42:51;1.50;;;1.00;;
15317;SDS011;7759;52.528;13.346;2023-02-24T15:47:46;1.10;;;1.00;;
15317;SDS011;7759;52.528;13.346;2023-02-24T15:50:17;2.10;;;1.30;;
15317;SDS011;7759;52.528;13.346;2023-02-24T15:52:43;1.03;;;0.83;;
15317;SDS011;7759;52.528;13.346;2023-02-24T15:55:09;0.70;;;0.70;;
15317;SDS011;7759;52.528;13.346;2023-02-24T15:57:35;2.93;;;1.10;;
15317;SDS011;7759;52.528;13.346;2023-02-24T16:00:02;1.90;;;1.23;;
15317;SDS011;7759;52.528;13.346;2023-02-24T16:02:33;2.33;;;1.20;;
15317;SDS011;7759;52.528;13.346;2023-02-24T16:04:59;0.90;;;0.67;;
15317;SDS011;7759;52.528;13.346;2023-02-24T16:07:29;0.53;;;0.53;;
15317;SDS011;7759;52.528;13.346;2023-02-24T16:09:56;1.20;;;1.00;;
15317;SDS011;7759;52.528;13.346;2023-02-24T16:12:33;1.10;;;1.00;;
15317;SDS011;7759;52.528;13.346;2023-02-24T16:15:00;3.40;;;0.80;;